sensor_id;sensor_type;location;lat;lon;timestamp;pressure;altitude;pressure_sealevel;temperature;humidity
44697;BME280;57264;47.480;19.354;2023-10-13T00:00:56;99335.31;;;14.73;100.00
44697;BME280;57264;47.480;19.354;2023-10-13T00:03:23;99335.09;;;14.74;100.00
44697;BME280;57264;47.480;19.354;2023-10-13T00:05:48;99339.69;;;14.56;100.00
44697;BME280;57264;47.480;19.354;2023-10-13T00:08:18;99351.06;;;14.56;100.00
44697;BME280;57264;47.480;19.354;2023-10-13T00:10:45;99345.41;;;14.52;100.00
44697;BME280;57264;47.480;19.354;2023-10-13T00:13:13;99347.47;;;14.39;100.00
44697;BME280;57264;47.480;19.354;2023-10-13T00:15:41;99343.44;;;14.36;100.00
44697;BME280;57264;47.480;19.354;2023-10-13T00:18:30;99349.09;;;14.40;100.00
44697;BME280;57264;47.480;19.354;2023-10-13T00:20:59;99347.38;;;14.45;100.00
44697;BME280;57264;47.480;19.354;2023-10-13T00:23:25;99346.59;;;14.15;100.00
44697;BME280;57264;47.480;19.354;2023-10-13T00:25:53;99349.69;;;14.12;100.00
44697;BME280;57264;47.480;19.354;2023-10-13T00:28:26;99345.69;;;14.33;100.00
44697;BME280;57264;47.480;19.354;2023-10-13T00:31:00;99351.22;;;13.90;100.00
44697;BME280;57264;47.480;19.354;2023-10-13T00:33:35;99349.91;;;13.81;100.00
44697;BME280;57264;47.480;19.354;2023-10-13T00:36:03;99344.72;;;13.74;100.00
44697;BME280;57264;47.480;19.354;2023-10-13T00:38:29;99346.53;;;13.92;100.00
44697;BME280;57264;47.480;19.354;2023-10-13T00:40:54;99348.53;;;14.08;100.00
44697;BME280;57264;47.480;19.354;2023-10-13T00:43:21;99346.06;;;13.95;100.00
44697;BME280;57264;47.480;19.354;2023-10-13T00:45:47;99346.50;;;13.62;100.00
44697;BME280;57264;47.480;19.354;2023-10-13T00:48:23;99345.50;;;14.04;100.00
44697;BME280;57264;47.480;19.354;2023-10-13T00:50:59;99347.28;;;14.22;100.00
44697;BME280;57264;47.480;19.354;2023-10-13T00:53:28;99339.88;;;14.01;100.00
44697;BME280;57264;47.480;19.354;2023-10-13T00:55:54;99336.81;;;14.04;100.00
44697;BME280;57264;47.480;19.354;2023-10-13T00:58:21;99328.31;;;14.43;100.00
44697;BME280;57264;47.480;19.354;2023-10-13T01:00:48;99340.19;;;14.34;100.00
44697;BME280;57264;47.480;19.354;2023-10-13T01:03:13;99327.97;;;14.75;100.00
44697;BME280;57264;47.480;19.354;2023-10-13T01:05:39;99335.31;;;14.61;100.00
44697;BME280;57264;47.480;19.354;2023-10-13T01:08:05;99339.09;;;14.53;100.00
44697;BME280;57264;47.480;19.354;2023-10-13T01:10:35;99335.91;;;14.86;100.00
44697;BME280;57264;47.480;19.354;2023-10-13T01:13:02;99337.75;;;14.63;100.00
44697;BME280;57264;47.480;19.354;2023-10-13T01:15:28;99330.06;;;14.84;100.00
44697;BME280;57264;47.480;19.354;2023-10-13T01:18:11;99327.38;;;14.49;100.00
44697;BME280;57264;47.480;19.354;2023-10-13T01:20:39;99330.94;;;14.43;100.00
44697;BME280;57264;47.480;19.354;2023-10-13T01:23:14;99330.09;;;14.31;100.00
44697;BME280;57264;47.480;19.354;2023-10-13T01:25:49;99331.16;;;14.42;100.00
44697;BME280;57264;47.480;19.354;2023-10-13T01:28:14;99330.28;;;14.48;100.00
44697;BME280;57264;47.480;19.354;2023-10-13T01:30:42;99333.53;;;14.20;100.00
44697;BME280;57264;47.480;19.354;2023-10-13T01:33:07;99335.31;;;14.38;100.00
44697;BME280;57264;47.480;19.354;2023-10-13T01:35:34;99341.00;;;14.23;100.00
44697;BME280;57264;47.480;19.354;2023-10-13T01:38:08;99345.22;;;14.24;100.00
44697;BME280;57264;47.480;19.354;2023-10-13T01:40:34;99336.00;;;14.03;100.00
44697;BME280;57264;47.480;19.354;2023-10-13T01:43:00;99337.44;;;14.29;100.00
44697;BME280;57264;47.480;19.354;2023-10-13T01:45:26;99340.38;;;14.51;100.00
44697;BME280;57264;47.480;19.354;2023-10-13T01:47:55;99340.00;;;14.36;100.00
44697;BME280;57264;47.480;19.354;2023-10-13T01:50:20;99340.84;;;14.18;100.00
44697;BME280;57264;47.480;19.354;2023-10-13T01:52:53;99339.78;;;14.37;100.00
44697;BME280;57264;47.480;19.354;2023-10-13T01:55:25;99338.91;;;14.25;100.00
44697;BME280;57264;47.480;19.354;2023-10-13T01:57:51;99342.09;;;14.45;100.00
44697;BME280;57264;47.480;19.354;2023-10-13T02:00:17;99337.97;;;14.73;100.00
44697;BME280;57264;47.480;19.354;2023-10-13T02:02:45;99341.19;;;14.75;100.00
44697;BME280;57264;47.480;19.354;2023-10-13T02:05:15;99354.03;;;14.48;100.00
44697;BME280;57264;47.480;19.354;2023-10-13T02:07:42;99341.16;;;14.40;100.00
44697;BME280;57264;47.480;19.354;2023-10-13T02:10:13;99336.38;;;14.19;100.00
44697;BME280;57264;47.480;19.354;2023-10-13T02:12:38;99341.84;;;14.35;100.00
44697;BME280;57264;47.480;19.354;2023-10-13T02:15:10;99342.50;;;14.31;100.00
44697;BME280;57264;47.480;19.354;2023-10-13T02:17:45;99342.22;;;14.50;100.00
44697;BME280;57264;47.480;19.354;2023-10-13T02:20:17;99335.22;;;14.68;100.00
44697;BME280;57264;47.480;19.354;2023-10-13T02:22:43;99341.63;;;15.07;100.00
44697;BME280;57264;47.480;19.354;2023-10-13T02:25:20;99342.44;;;15.07;100.00
44697;BME280;57264;47.480;19.354;2023-10-13T02:28:02;99334.97;;;14.92;100.00
44697;BME280;57264;47.480;19.354;2023-10-13T02:30:30;99329.81;;;14.63;100.00
44697;BME280;57264;47.480;19.354;2023-10-13T02:32:58;99330.28;;;14.48;100.00
44697;BME280;57264;47.480;19.354;2023-10-13T02:35:28;99330.38;;;14.65;100.00
44697;BME280;57264;47.480;19.354;2023-10-13T02:38:09;99343.16;;;14.79;100.00
44697;BME280;57264;47.480;19.354;2023-10-13T02:40:38;99320.25;;;15.08;100.00
44697;BME280;57264;47.480;19.354;2023-10-13T02:43:04;99321.19;;;14.90;100.00
44697;BME280;57264;47.480;19.354;2023-10-13T02:45:33;99322.91;;;14.73;100.00
44697;BME280;57264;47.480;19.354;2023-10-13T02:48:01;99329.13;;;14.90;100.00
44697;BME280;57264;47.480;19.354;2023-10-13T02:50:42;99334.41;;;14.90;100.00
44697;BME280;57264;47.480;19.354;2023-10-13T02:53:11;99340.25;;;14.69;100.00
44697;BME280;57264;47.480;19.354;2023-10-13T02:55:56;99339.81;;;14.72;100.00
44697;BME280;57264;47.480;19.354;2023-10-13T02:58:30;99352.31;;;14.88;100.00
44697;BME280;57264;47.480;19.354;2023-10-13T03:01:04;99358.53;;;14.71;100.00
44697;BME280;57264;47.480;19.354;2023-10-13T03:03:35;99362.69;;;14.78;100.00
44697;BME280;57264;47.480;19.354;2023-10-13T03:06:00;99363.66;;;15.35;99.01
44697;BME280;57264;47.480;19.354;2023-10-13T03:08:26;99361.81;;;15.59;96.05
44697;BME280;57264;47.480;19.354;2023-10-13T03:10:52;99370.78;;;15.46;97.00
44697;BME280;57264;47.480;19.354;2023-10-13T03:13:19;99372.81;;;15.68;96.33
44697;BME280;57264;47.480;19.354;2023-10-13T03:33:52;99350.31;;;15.54;97.19
44697;BME280;57264;47.480;19.354;2023-10-13T03:36:27;99348.53;;;15.19;100.00
44697;BME280;57264;47.480;19.354;2023-10-13T03:39:11;99361.16;;;15.17;100.00
44697;BME280;57264;47.480;19.354;2023-10-13T03:41:38;99365.53;;;15.75;98.13
44697;BME280;57264;47.480;19.354;2023-10-13T03:44:05;99366.47;;;15.97;96.47
44697;BME280;57264;47.480;19.354;2023-10-13T03:46:43;99352.09;;;16.21;94.16
44697;BME280;57264;47.480;19.354;2023-10-13T03:49:10;99343.84;;;16.34;92.61
44697;BME280;57264;47.480;19.354;2023-10-13T03:51:39;99340.31;;;16.46;91.79
44697;BME280;57264;47.480;19.354;2023-10-13T03:54:05;99333.34;;;16.39;92.49
44697;BME280;57264;47.480;19.354;2023-10-13T03:56:34;99339.66;;;16.38;91.82
44697;BME280;57264;47.480;19.354;2023-10-13T04:01:34;99331.56;;;16.62;88.24
44697;BME280;57264;47.480;19.354;2023-10-13T04:04:18;99322.78;;;16.11;94.73
44697;BME280;57264;47.480;19.354;2023-10-13T04:07:04;99310.72;;;15.59;100.00
44697;BME280;57264;47.480;19.354;2023-10-13T04:09:32;99309.75;;;15.93;98.91
44697;BME280;57264;47.480;19.354;2023-10-13T04:11:58;99305.38;;;15.70;100.00
44697;BME280;57264;47.480;19.354;2023-10-13T04:14:30;99304.31;;;15.43;100.00
44697;BME280;57264;47.480;19.354;2023-10-13T04:17:14;99303.31;;;15.32;100.00
44697;BME280;57264;47.480;19.354;2023-10-13T04:19:40;99297.59;;;15.24;100.00
44697;BME280;57264;47.480;19.354;2023-10-13T04:22:26;99300.53;;;15.39;100.00
44697;BME280;57264;47.480;19.354;2023-10-13T04:25:11;99293.34;;;16.24;95.37
44697;BME280;57264;47.480;19.354;2023-10-13T04:27:55;99285.31;;;16.36;93.80
44697;BME280;57264;47.480;19.354;2023-10-13T04:30:41;99309.88;;;15.70;100.00
44697;BME280;57264;47.480;19.354;2023-10-13T04:33:33;99304.06;;;15.56;100.00
44697;BME280;57264;47.480;19.354;2023-10-13T04:36:02;99300.63;;;15.56;100.00
44697;BME280;57264;47.480;19.354;2023-10-13T04:38:45;99290.84;;;15.56;100.00
44697;BME280;57264;47.480;19.354;2023-10-13T04:41:30;99269.91;;;15.43;100.00
44697;BME280;57264;47.480;19.354;2023-10-13T04:44:22;99278.44;;;15.33;100.00
44697;BME280;57264;47.480;19.354;2023-10-13T04:47:05;99287.06;;;15.40;100.00
44697;BME280;57264;47.480;19.354;2023-10-13T04:49:35;99286.13;;;15.46;100.00
44697;BME280;57264;47.480;19.354;2023-10-13T04:52:14;99302.13;;;15.40;100.00
44697;BME280;57264;47.480;19.354;2023-10-13T04:55:00;99306.50;;;15.34;100.00
44697;BME280;57264;47.480;19.354;2023-10-13T04:57:41;99307.56;;;15.22;100.00
44697;BME280;57264;47.480;19.354;2023-10-13T05:00:25;99308.97;;;15.13;100.00
44697;BME280;57264;47.480;19.354;2023-10-13T05:03:09;99327.13;;;15.09;100.00
44697;BME280;57264;47.480;19.354;2023-10-13T05:05:53;99333.03;;;14.88;100.00
44697;BME280;57264;47.480;19.354;2023-10-13T05:08:37;99344.84;;;14.85;100.00
44697;BME280;57264;47.480;19.354;2023-10-13T05:11:20;99357.97;;;14.92;100.00
44697;BME280;57264;47.480;19.354;2023-10-13T05:14:04;99332.09;;;14.94;100.00
44697;BME280;57264;47.480;19.354;2023-10-13T05:16:48;99320.72;;;14.93;100.00
44697;BME280;57264;47.480;19.354;2023-10-13T05:19:32;99319.81;;;14.99;100.00
44697;BME280;57264;47.480;19.354;2023-10-13T05:22:16;99315.78;;;14.97;100.00
44697;BME280;57264;47.480;19.354;2023-10-13T05:25:00;99324.75;;;14.96;100.00
44697;BME280;57264;47.480;19.354;2023-10-13T05:27:44;99330.94;;;15.02;100.00
44697;BME280;57264;47.480;19.354;2023-10-13T05:30:28;99339.69;;;15.02;100.00
44697;BME280;57264;47.480;19.354;2023-10-13T05:33:12;99338.22;;;14.83;100.00
44697;BME280;57264;47.480;19.354;2023-10-13T05:35:56;99346.34;;;14.81;100.00
44697;BME280;57264;47.480;19.354;2023-10-13T05:38:40;99367.06;;;14.84;100.00
44697;BME280;57264;47.480;19.354;2023-10-13T05:41:24;99381.97;;;14.79;100.00
44697;BME280;57264;47.480;19.354;2023-10-13T05:44:08;99377.94;;;14.65;100.00
44697;BME280;57264;47.480;19.354;2023-10-13T05:46:52;99379.19;;;14.62;100.00
44697;BME280;57264;47.480;19.354;2023-10-13T05:49:46;99378.06;;;14.58;100.00
44697;BME280;57264;47.480;19.354;2023-10-13T05:52:16;99361.19;;;14.59;100.00
44697;BME280;57264;47.480;19.354;2023-10-13T05:54:45;99370.59;;;14.67;100.00
44697;BME280;57264;47.480;19.354;2023-10-13T05:57:29;99368.50;;;14.69;100.00
44697;BME280;57264;47.480;19.354;2023-10-13T06:00:13;99361.06;;;14.77;100.00
44697;BME280;57264;47.480;19.354;2023-10-13T06:02:57;99367.28;;;14.94;100.00
44697;BME280;57264;47.480;19.354;2023-10-13T06:05:41;99385.56;;;15.08;100.00
44697;BME280;57264;47.480;19.354;2023-10-13T06:08:25;99397.84;;;15.14;100.00
44697;BME280;57264;47.480;19.354;2023-10-13T06:11:09;99427.94;;;15.01;100.00
44697;BME280;57264;47.480;19.354;2023-10-13T06:13:53;99428.97;;;14.77;100.00
44697;BME280;57264;47.480;19.354;2023-10-13T06:16:37;99411.72;;;14.74;100.00
44697;BME280;57264;47.480;19.354;2023-10-13T06:19:21;99417.16;;;14.79;100.00
44697;BME280;57264;47.480;19.354;2023-10-13T06:22:05;99408.06;;;14.75;100.00
44697;BME280;57264;47.480;19.354;2023-10-13T06:24:49;99408.88;;;14.87;100.00
44697;BME280;57264;47.480;19.354;2023-10-13T06:27:33;99417.03;;;15.09;100.00
44697;BME280;57264;47.480;19.354;2023-10-13T06:30:17;99404.16;;;15.36;100.00
44697;BME280;57264;47.480;19.354;2023-10-13T06:32:42;99406.94;;;15.53;100.00
44697;BME280;57264;47.480;19.354;2023-10-13T06:35:08;99426.56;;;15.57;100.00
44697;BME280;57264;47.480;19.354;2023-10-13T06:37:33;99422.53;;;15.54;100.00
44697;BME280;57264;47.480;19.354;2023-10-13T06:40:00;99433.72;;;15.56;100.00
44697;BME280;57264;47.480;19.354;2023-10-13T06:42:33;99440.50;;;15.52;100.00
44697;BME280;57264;47.480;19.354;2023-10-13T06:45:08;99445.88;;;15.34;100.00
44697;BME280;57264;47.480;19.354;2023-10-13T06:47:34;99444.28;;;15.33;100.00
44697;BME280;57264;47.480;19.354;2023-10-13T06:50:05;99455.31;;;15.18;100.00
44697;BME280;57264;47.480;19.354;2023-10-13T06:52:40;99454.63;;;15.23;100.00
44697;BME280;57264;47.480;19.354;2023-10-13T06:55:07;99465.56;;;15.15;100.00
44697;BME280;57264;47.480;19.354;2023-10-13T06:57:33;99461.88;;;15.16;100.00
44697;BME280;57264;47.480;19.354;2023-10-13T07:00:02;99476.59;;;15.00;100.00
44697;BME280;57264;47.480;19.354;2023-10-13T07:02:33;99476.47;;;14.95;100.00
44697;BME280;57264;47.480;19.354;2023-10-13T07:05:02;99476.47;;;14.95;100.00
44697;BME280;57264;47.480;19.354;2023-10-13T07:07:45;99471.38;;;14.93;100.00
44697;BME280;57264;47.480;19.354;2023-10-13T07:10:13;99478.19;;;15.01;100.00
44697;BME280;57264;47.480;19.354;2023-10-13T07:12:38;99492.53;;;14.93;100.00
44697;BME280;57264;47.480;19.354;2023-10-13T07:15:09;99506.34;;;15.07;100.00
44697;BME280;57264;47.480;19.354;2023-10-13T07:17:45;99508.75;;;14.97;100.00
44697;BME280;57264;47.480;19.354;2023-10-13T07:20:11;99488.25;;;14.81;100.00
44697;BME280;57264;47.480;19.354;2023-10-13T07:22:40;99488.75;;;15.01;100.00
44697;BME280;57264;47.480;19.354;2023-10-13T07:25:10;99501.53;;;15.04;100.00
44697;BME280;57264;47.480;19.354;2023-10-13T07:27:43;99503.25;;;15.10;100.00
44697;BME280;57264;47.480;19.354;2023-10-13T07:30:09;99511.78;;;15.24;100.00
44697;BME280;57264;47.480;19.354;2023-10-13T07:32:37;99502.72;;;15.31;100.00
44697;BME280;57264;47.480;19.354;2023-10-13T07:35:17;99501.69;;;15.32;100.00
44697;BME280;57264;47.480;19.354;2023-10-13T07:37:45;99479.25;;;15.35;100.00
44697;BME280;57264;47.480;19.354;2023-10-13T07:40:14;99468.56;;;15.53;100.00
44697;BME280;57264;47.480;19.354;2023-10-13T07:42:55;99463.47;;;15.75;100.00
44697;BME280;57264;47.480;19.354;2023-10-13T07:45:26;99475.50;;;15.94;100.00
44697;BME280;57264;47.480;19.354;2023-10-13T07:48:01;99494.75;;;15.78;100.00
44697;BME280;57264;47.480;19.354;2023-10-13T07:50:29;99480.25;;;15.69;100.00
44697;BME280;57264;47.480;19.354;2023-10-13T07:52:58;99465.53;;;15.73;100.00
44697;BME280;57264;47.480;19.354;2023-10-13T07:55:32;99464.06;;;16.17;100.00
44697;BME280;57264;47.480;19.354;2023-10-13T07:57:59;99466.31;;;16.25;100.00
44697;BME280;57264;47.480;19.354;2023-10-13T08:00:25;99476.22;;;16.58;100.00
44697;BME280;57264;47.480;19.354;2023-10-13T08:03:03;99482.25;;;16.70;100.00
44697;BME280;57264;47.480;19.354;2023-10-13T08:05:41;99482.78;;;17.00;100.00
44697;BME280;57264;47.480;19.354;2023-10-13T08:08:29;99493.72;;;17.20;100.00
44697;BME280;57264;47.480;19.354;2023-10-13T08:13:39;99474.41;;;16.92;100.00
44697;BME280;57264;47.480;19.354;2023-10-13T08:16:11;99480.75;;;16.91;100.00
44697;BME280;57264;47.480;19.354;2023-10-13T08:18:45;99482.47;;;16.97;100.00
44697;BME280;57264;47.480;19.354;2023-10-13T08:21:14;99478.44;;;17.11;100.00
44697;BME280;57264;47.480;19.354;2023-10-13T08:23:45;99481.72;;;17.18;100.00
44697;BME280;57264;47.480;19.354;2023-10-13T08:26:30;99477.78;;;17.04;100.00
44697;BME280;57264;47.480;19.354;2023-10-13T08:29:16;99477.13;;;17.30;100.00
44697;BME280;57264;47.480;19.354;2023-10-13T08:31:48;99476.72;;;17.38;100.00
44697;BME280;57264;47.480;19.354;2023-10-13T08:34:33;99466.97;;;17.60;98.62
44697;BME280;57264;47.480;19.354;2023-10-13T08:37:25;99467.69;;;17.72;97.98
44697;BME280;57264;47.480;19.354;2023-10-13T08:39:51;99470.91;;;17.58;100.00
44697;BME280;57264;47.480;19.354;2023-10-13T08:47:32;99468.09;;;18.08;96.99
44697;BME280;57264;47.480;19.354;2023-10-13T08:50:02;99474.81;;;18.15;94.00
44697;BME280;57264;47.480;19.354;2023-10-13T08:52:48;99471.06;;;18.11;93.72
44697;BME280;57264;47.480;19.354;2023-10-13T08:55:14;99477.94;;;18.34;94.76
44697;BME280;57264;47.480;19.354;2023-10-13T08:58:06;99473.59;;;18.50;91.32
44697;BME280;57264;47.480;19.354;2023-10-13T09:00:45;99474.44;;;18.77;90.51
44697;BME280;57264;47.480;19.354;2023-10-13T09:03:21;99471.31;;;18.85;88.51
44697;BME280;57264;47.480;19.354;2023-10-13T09:06:08;99480.19;;;18.69;89.61
44697;BME280;57264;47.480;19.354;2023-10-13T09:08:40;99479.50;;;19.15;87.85
44697;BME280;57264;47.480;19.354;2023-10-13T09:11:24;99483.16;;;19.41;85.09
44697;BME280;57264;47.480;19.354;2023-10-13T09:13:53;99492.53;;;19.12;85.60
44697;BME280;57264;47.480;19.354;2023-10-13T09:16:18;99488.84;;;19.55;86.37
44697;BME280;57264;47.480;19.354;2023-10-13T09:19:06;99484.69;;;19.32;86.50
44697;BME280;57264;47.480;19.354;2023-10-13T09:21:44;99483.47;;;19.45;88.21
44697;BME280;57264;47.480;19.354;2023-10-13T09:24:13;99477.19;;;19.24;86.31
44697;BME280;57264;47.480;19.354;2023-10-13T09:26:47;99480.34;;;19.58;86.01
44697;BME280;57264;47.480;19.354;2023-10-13T09:29:20;99476.13;;;19.30;88.21
44697;BME280;57264;47.480;19.354;2023-10-13T09:31:47;99484.09;;;19.62;86.22
44697;BME280;57264;47.480;19.354;2023-10-13T09:34:19;99477.09;;;19.51;85.68
44697;BME280;57264;47.480;19.354;2023-10-13T09:36:45;99474.94;;;20.00;81.89
44697;BME280;57264;47.480;19.354;2023-10-13T09:39:12;99465.91;;;20.11;82.29
44697;BME280;57264;47.480;19.354;2023-10-13T09:41:50;99471.44;;;21.22;77.43
44697;BME280;57264;47.480;19.354;2023-10-13T09:44:18;99475.38;;;20.59;78.27
44697;BME280;57264;47.480;19.354;2023-10-13T09:46:46;99471.44;;;21.22;77.83
44697;BME280;57264;47.480;19.354;2023-10-13T09:49:14;99470.06;;;21.35;76.32
44697;BME280;57264;47.480;19.354;2023-10-13T09:52:00;99470.50;;;21.82;74.45
44697;BME280;57264;47.480;19.354;2023-10-13T09:54:36;99467.06;;;22.31;72.31
44697;BME280;57264;47.480;19.354;2023-10-13T09:57:13;99469.03;;;21.26;74.66
44697;BME280;57264;47.480;19.354;2023-10-13T09:59:46;99464.22;;;22.12;72.47
44697;BME280;57264;47.480;19.354;2023-10-13T10:02:17;99464.22;;;22.56;70.68
44697;BME280;57264;47.480;19.354;2023-10-13T10:04:53;99462.25;;;22.77;71.25
44697;BME280;57264;47.480;19.354;2023-10-13T10:07:27;99463.31;;;22.76;70.23
44697;BME280;57264;47.480;19.354;2023-10-13T10:09:56;99463.41;;;22.17;75.28
44697;BME280;57264;47.480;19.354;2023-10-13T10:12:38;99460.06;;;22.40;69.76
44697;BME280;57264;47.480;19.354;2023-10-13T10:17:41;99453.91;;;22.39;70.60
44697;BME280;57264;47.480;19.354;2023-10-13T10:20:09;99444.78;;;22.84;71.13
44697;BME280;57264;47.480;19.354;2023-10-13T10:22:54;99446.22;;;22.28;69.45
44697;BME280;57264;47.480;19.354;2023-10-13T10:25:28;99441.16;;;22.65;67.94
44697;BME280;57264;47.480;19.354;2023-10-13T10:27:54;99435.81;;;22.99;68.20
44697;BME280;57264;47.480;19.354;2023-10-13T10:30:25;99435.34;;;22.92;67.28
44697;BME280;57264;47.480;19.354;2023-10-13T10:32:56;99431.22;;;23.05;66.06
44697;BME280;57264;47.480;19.354;2023-10-13T10:35:27;99426.56;;;23.44;65.69
44697;BME280;57264;47.480;19.354;2023-10-13T10:40:54;99425.34;;;23.55;64.77
44697;BME280;57264;47.480;19.354;2023-10-13T10:45:51;99413.38;;;23.48;64.81
44697;BME280;57264;47.480;19.354;2023-10-13T10:48:17;99421.38;;;23.53;64.47
44697;BME280;57264;47.480;19.354;2023-10-13T10:50:55;99420.72;;;23.37;64.00
44697;BME280;57264;47.480;19.354;2023-10-13T10:53:22;99411.91;;;23.08;65.04
44697;BME280;57264;47.480;19.354;2023-10-13T10:55:48;99407.75;;;23.20;66.99
44697;BME280;57264;47.480;19.354;2023-10-13T10:58:14;99408.00;;;22.61;67.52
44697;BME280;57264;47.480;19.354;2023-10-13T11:01:04;99409.16;;;22.89;67.04
44697;BME280;57264;47.480;19.354;2023-10-13T11:03:35;99409.81;;;22.71;67.83
44697;BME280;57264;47.480;19.354;2023-10-13T11:06:03;99410.84;;;23.09;66.38
44697;BME280;57264;47.480;19.354;2023-10-13T11:08:29;99409.19;;;22.50;67.87
44697;BME280;57264;47.480;19.354;2023-10-13T11:13:49;99408.44;;;22.78;67.48
44697;BME280;57264;47.480;19.354;2023-10-13T11:16:22;99403.59;;;22.80;67.94
44697;BME280;57264;47.480;19.354;2023-10-13T11:19:02;99406.91;;;23.25;66.06
44697;BME280;57264;47.480;19.354;2023-10-13T11:21:30;99399.72;;;23.49;67.16
44697;BME280;57264;47.480;19.354;2023-10-13T11:23:59;99401.50;;;23.30;66.22
44697;BME280;57264;47.480;19.354;2023-10-13T11:26:36;99396.94;;;23.07;67.15
44697;BME280;57264;47.480;19.354;2023-10-13T11:29:34;99389.22;;;23.53;65.15
44697;BME280;57264;47.480;19.354;2023-10-13T11:31:59;99399.91;;;23.29;64.84
44697;BME280;57264;47.480;19.354;2023-10-13T11:34:25;99383.50;;;23.59;64.82
44697;BME280;57264;47.480;19.354;2023-10-13T11:36:55;99394.94;;;23.46;65.88
44697;BME280;57264;47.480;19.354;2023-10-13T11:39:20;99395.22;;;23.16;66.21
44697;BME280;57264;47.480;19.354;2023-10-13T11:41:55;99387.63;;;23.52;65.83
44697;BME280;57264;47.480;19.354;2023-10-13T11:44:21;99387.59;;;23.75;65.50
44697;BME280;57264;47.480;19.354;2023-10-13T11:46:49;99394.72;;;23.38;65.21
44697;BME280;57264;47.480;19.354;2023-10-13T11:49:21;99394.41;;;23.39;65.30
44697;BME280;57264;47.480;19.354;2023-10-13T11:51:53;99388.69;;;23.74;65.92
44697;BME280;57264;47.480;19.354;2023-10-13T11:54:27;99394.94;;;23.41;66.46
44697;BME280;57264;47.480;19.354;2023-10-13T11:56:52;99394.75;;;23.61;66.11
44697;BME280;57264;47.480;19.354;2023-10-13T11:59:17;99377.53;;;23.86;65.28
44697;BME280;57264;47.480;19.354;2023-10-13T12:01:44;99384.59;;;23.58;65.55
44697;BME280;57264;47.480;19.354;2023-10-13T12:04:28;99382.47;;;23.55;66.60
44697;BME280;57264;47.480;19.354;2023-10-13T12:07:12;99376.81;;;23.09;66.10
44697;BME280;57264;47.480;19.354;2023-10-13T12:09:47;99387.19;;;23.40;66.11
44697;BME280;57264;47.480;19.354;2023-10-13T12:12:24;99375.75;;;23.34;65.77
44697;BME280;57264;47.480;19.354;2023-10-13T12:14:51;99372.69;;;23.22;65.96
44697;BME280;57264;47.480;19.354;2023-10-13T12:17:29;99376.91;;;23.52;67.14
44697;BME280;57264;47.480;19.354;2023-10-13T12:20:03;99385.28;;;22.93;68.06
44697;BME280;57264;47.480;19.354;2023-10-13T12:22:36;99380.81;;;23.59;66.97
44697;BME280;57264;47.480;19.354;2023-10-13T12:25:06;99380.09;;;23.30;66.18
44697;BME280;57264;47.480;19.354;2023-10-13T12:27:52;99368.63;;;23.48;66.59
44697;BME280;57264;47.480;19.354;2023-10-13T12:30:22;99366.00;;;23.43;66.47
44697;BME280;57264;47.480;19.354;2023-10-13T12:33:00;99370.88;;;23.36;67.04
44697;BME280;57264;47.480;19.354;2023-10-13T12:35:34;99370.47;;;23.53;67.74
44697;BME280;57264;47.480;19.354;2023-10-13T12:38:11;99362.69;;;23.51;66.88
44697;BME280;57264;47.480;19.354;2023-10-13T12:40:55;99362.84;;;23.36;67.05
44697;BME280;57264;47.480;19.354;2023-10-13T12:43:39;99359.50;;;23.02;67.29
44697;BME280;57264;47.480;19.354;2023-10-13T12:46:23;99367.00;;;23.23;66.87
44697;BME280;57264;47.480;19.354;2023-10-13T12:49:07;99360.94;;;23.42;66.15
44697;BME280;57264;47.480;19.354;2023-10-13T12:51:52;99346.44;;;23.66;66.03
44697;BME280;57264;47.480;19.354;2023-10-13T12:54:17;99350.41;;;23.50;66.45
44697;BME280;57264;47.480;19.354;2023-10-13T12:56:48;99340.22;;;23.90;64.40
44697;BME280;57264;47.480;19.354;2023-10-13T12:59:14;99336.91;;;23.79;64.19
44697;BME280;57264;47.480;19.354;2023-10-13T13:01:39;99332.00;;;24.37;63.09
44697;BME280;57264;47.480;19.354;2023-10-13T13:04:08;99334.69;;;24.00;62.66
44697;BME280;57264;47.480;19.354;2023-10-13T13:06:37;99327.22;;;24.34;60.66
44697;BME280;57264;47.480;19.354;2023-10-13T13:09:05;99328.72;;;24.40;59.50
44697;BME280;57264;47.480;19.354;2023-10-13T13:11:34;99327.78;;;24.50;60.71
44697;BME280;57264;47.480;19.354;2023-10-13T13:14:04;99324.47;;;24.39;59.89
44697;BME280;57264;47.480;19.354;2023-10-13T13:16:33;99316.31;;;23.93;60.98
44697;BME280;57264;47.480;19.354;2023-10-13T13:18:58;99317.38;;;24.62;62.93
44697;BME280;57264;47.480;19.354;2023-10-13T13:21:23;99309.06;;;25.04;57.04
44697;BME280;57264;47.480;19.354;2023-10-13T13:23:52;99311.66;;;25.09;59.45
44697;BME280;57264;47.480;19.354;2023-10-13T13:26:20;99307.38;;;25.08;57.84
44697;BME280;57264;47.480;19.354;2023-10-13T13:28:47;99309.03;;;24.77;57.55
44697;BME280;57264;47.480;19.354;2023-10-13T13:31:19;99310.47;;;24.42;59.31
44697;BME280;57264;47.480;19.354;2023-10-13T13:33:50;99311.63;;;24.36;58.09
44697;BME280;57264;47.480;19.354;2023-10-13T13:36:15;99315.47;;;24.62;57.88
44697;BME280;57264;47.480;19.354;2023-10-13T13:38:41;99305.56;;;24.77;56.72
44697;BME280;57264;47.480;19.354;2023-10-13T13:41:13;99306.91;;;24.47;55.96
44697;BME280;57264;47.480;19.354;2023-10-13T13:43:45;99308.22;;;24.77;55.68
44697;BME280;57264;47.480;19.354;2023-10-13T13:46:29;99305.75;;;24.80;55.87
44697;BME280;57264;47.480;19.354;2023-10-13T13:48:58;99301.69;;;24.83;55.52
44697;BME280;57264;47.480;19.354;2023-10-13T13:51:25;99301.38;;;24.70;56.75
44697;BME280;57264;47.480;19.354;2023-10-13T13:53:56;99294.09;;;24.57;55.60
44697;BME280;57264;47.480;19.354;2023-10-13T13:56:22;99301.22;;;24.48;55.14